createdAt,value
2018-07-16T00:01:44.982Z,83.34
2018-07-16T00:04:13.166Z,82.75
2018-07-16T00:06:41.365Z,82.21
2018-07-16T00:09:09.553Z,82.08
2018-07-16T00:11:37.731Z,82.27
2018-07-16T00:14:05.968Z,82.12
2018-07-16T00:16:34.155Z,81.85
2018-07-16T00:19:02.342Z,82.23
2018-07-16T00:21:30.516Z,82.39
2018-07-16T00:23:58.634Z,82.29
2018-07-16T00:26:26.758Z,82.56
2018-07-16T00:28:54.910Z,82.54
2018-07-16T00:31:23.055Z,82.62
2018-07-16T00:33:51.153Z,82.74
2018-07-16T00:36:19.284Z,81.84
2018-07-16T00:38:47.434Z,82.40
2018-07-16T00:41:15.604Z,82.66
2018-07-16T00:43:43.716Z,83.19
2018-07-16T00:46:11.858Z,82.74
2018-07-16T00:48:40.049Z,83.49
2018-07-16T00:51:08.250Z,83.36
2018-07-16T00:53:36.422Z,83.83
2018-07-16T00:56:04.573Z,83.42
2018-07-16T00:58:32.689Z,82.46
2018-07-16T01:01:00.822Z,82.93
2018-07-16T01:03:28.995Z,82.78
2018-07-16T01:05:57.092Z,82.77
2018-07-16T01:08:25.198Z,82.90
2018-07-16T01:10:53.352Z,83.13
2018-07-16T01:13:21.440Z,83.04
2018-07-16T01:15:49.525Z,82.92
2018-07-16T01:18:17.712Z,83.16
2018-07-16T01:20:45.900Z,83.09
2018-07-16T01:23:14.003Z,83.20
2018-07-16T01:25:42.128Z,83.01
2018-07-16T01:28:10.256Z,83.76
2018-07-16T01:30:38.495Z,83.92
2018-07-16T01:33:06.588Z,83.88
2018-07-16T01:35:34.750Z,83.73
2018-07-16T01:38:03.166Z,83.46
2018-07-16T01:40:31.320Z,83.26
2018-07-16T01:42:59.454Z,83.55
2018-07-16T01:45:27.590Z,84.18
2018-07-16T01:47:55.725Z,83.69
2018-07-16T01:50:23.910Z,83.72
2018-07-16T01:52:52.075Z,84.93
2018-07-16T01:55:20.210Z,84.66
2018-07-16T01:57:48.373Z,84.27
2018-07-16T02:00:16.512Z,84.53
2018-07-16T02:02:44.633Z,84.45
2018-07-16T02:05:12.793Z,84.62
2018-07-16T02:07:40.941Z,84.80
2018-07-16T02:10:09.095Z,84.94
2018-07-16T02:12:37.242Z,84.64
2018-07-16T02:15:05.422Z,84.06
2018-07-16T02:17:33.939Z,83.84
2018-07-16T02:20:02.239Z,83.57
2018-07-16T02:22:30.456Z,83.75
2018-07-16T02:24:58.652Z,84.20
2018-07-16T02:27:26.782Z,83.81
2018-07-16T02:29:54.949Z,83.41
2018-07-16T02:32:23.075Z,83.16
2018-07-16T02:34:51.207Z,82.76
2018-07-16T02:37:19.337Z,82.74
2018-07-16T02:39:47.475Z,83.11
2018-07-16T02:42:15.629Z,82.86
2018-07-16T02:44:43.777Z,83.08
2018-07-16T02:47:11.982Z,82.73
2018-07-16T02:49:40.157Z,83.25
2018-07-16T02:52:08.301Z,83.40
2018-07-16T02:54:36.501Z,82.99
2018-07-16T02:57:04.654Z,82.79
2018-07-16T02:59:32.819Z,82.30
2018-07-16T03:02:00.954Z,82.45
2018-07-16T03:04:29.198Z,82.63
2018-07-16T03:06:57.357Z,82.54
2018-07-16T03:09:25.488Z,82.40
2018-07-16T03:11:53.607Z,82.74
2018-07-16T03:14:21.930Z,82.42
2018-07-16T03:16:50.067Z,82.72
2018-07-16T03:19:18.190Z,83.01
2018-07-16T03:21:46.353Z,83.12
2018-07-16T03:24:14.500Z,83.00
2018-07-16T03:26:42.611Z,84.04
2018-07-16T03:29:10.748Z,84.07
2018-07-16T03:31:38.918Z,83.77
2018-07-16T03:34:07.059Z,83.44
2018-07-16T03:36:35.215Z,83.11
2018-07-16T03:39:04.288Z,83.49
2018-07-16T03:41:32.443Z,83.36
2018-07-16T03:44:00.620Z,83.61
2018-07-16T03:46:28.779Z,83.38
2018-07-16T03:48:56.953Z,83.47
2018-07-16T03:51:25.168Z,84.25
2018-07-16T03:53:53.355Z,84.46
2018-07-16T03:56:21.494Z,84.56
2018-07-16T03:58:49.632Z,84.08
2018-07-16T04:01:17.802Z,84.88
2018-07-16T04:03:45.960Z,85.02
2018-07-16T04:06:14.105Z,84.44
2018-07-16T04:08:42.238Z,83.68
2018-07-16T04:11:10.361Z,83.73
2018-07-16T04:13:38.476Z,83.38
2018-07-16T04:16:06.597Z,83.25
2018-07-16T04:18:34.728Z,82.76
2018-07-16T04:21:02.857Z,82.97
2018-07-16T04:23:31.031Z,82.93
2018-07-16T04:25:59.194Z,82.36
2018-07-16T04:28:27.377Z,82.16
2018-07-16T04:30:55.534Z,82.31
2018-07-16T04:33:23.691Z,82.70
2018-07-16T04:35:51.859Z,82.61
2018-07-16T04:38:20.050Z,81.49
2018-07-16T04:40:48.232Z,81.50
2018-07-16T04:43:16.345Z,80.52
2018-07-16T04:45:44.500Z,80.42
2018-07-16T04:48:12.693Z,79.36
2018-07-16T04:50:40.859Z,81.09
2018-07-16T04:53:08.948Z,81.03
2018-07-16T04:55:37.128Z,80.04
2018-07-16T04:58:05.477Z,78.62
2018-07-16T05:00:33.600Z,76.22
2018-07-16T05:03:01.810Z,73.75
2018-07-16T05:05:29.930Z,73.69
2018-07-16T05:07:58.041Z,69.39
2018-07-16T05:10:26.188Z,64.68
2018-07-16T05:12:54.355Z,60.54
2018-07-16T05:15:22.439Z,57.56
2018-07-16T05:17:50.594Z,52.90
2018-07-16T05:20:18.724Z,52.00
2018-07-16T05:22:46.897Z,50.41
2018-07-16T05:25:15.028Z,50.60
2018-07-16T05:27:43.229Z,50.11
2018-07-16T05:30:11.358Z,48.16
2018-07-16T05:32:39.682Z,47.34
2018-07-16T05:35:07.604Z,46.54
2018-07-16T05:37:35.719Z,46.96
2018-07-16T05:40:03.875Z,43.14
2018-07-16T05:42:32.051Z,42.12
2018-07-16T05:45:00.134Z,43.63
2018-07-16T05:47:28.259Z,43.32
2018-07-16T05:49:56.353Z,42.23
2018-07-16T05:52:24.526Z,42.60
2018-07-16T05:54:52.640Z,40.32
2018-07-16T05:57:20.741Z,39.81
2018-07-16T05:59:49.033Z,42.52
2018-07-16T06:02:17.136Z,42.73
2018-07-16T06:04:45.269Z,44.11
2018-07-16T06:07:13.443Z,41.52
2018-07-16T06:09:41.616Z,40.90
2018-07-16T06:12:09.786Z,40.98
2018-07-16T06:14:37.945Z,44.26
2018-07-16T06:17:06.175Z,45.44
2018-07-16T06:19:34.309Z,41.65
2018-07-16T06:22:02.458Z,40.42
2018-07-16T06:24:30.569Z,34.26
2018-07-16T06:26:58.667Z,31.40
2018-07-16T06:29:26.750Z,36.61
2018-07-16T06:31:54.852Z,35.84
2018-07-16T06:34:22.974Z,37.27
2018-07-16T06:36:51.089Z,36.99
2018-07-16T06:39:19.302Z,34.95
2018-07-16T06:41:47.514Z,36.81
2018-07-16T06:44:15.575Z,36.77
2018-07-16T06:46:43.706Z,37.10
2018-07-16T06:49:11.839Z,35.04
2018-07-16T06:51:39.956Z,33.83
2018-07-16T06:54:08.353Z,35.88
2018-07-16T06:56:36.541Z,33.45
2018-07-16T06:59:04.719Z,33.27
2018-07-16T07:01:32.796Z,35.53
2018-07-16T07:04:00.892Z,34.68
2018-07-16T07:06:29.673Z,35.35
2018-07-16T07:08:57.794Z,34.46
2018-07-16T07:11:25.924Z,32.01
2018-07-16T07:13:54.049Z,32.29
2018-07-16T07:16:22.185Z,33.35
2018-07-16T07:18:50.288Z,34.17
2018-07-16T07:21:18.389Z,36.67
2018-07-16T07:23:46.523Z,35.34
2018-07-16T07:26:14.660Z,36.23
2018-07-16T07:28:42.745Z,35.95
2018-07-16T07:31:10.850Z,36.48
2018-07-16T07:33:39.019Z,31.73
2018-07-16T07:36:07.187Z,31.02
2018-07-16T07:38:35.267Z,34.01
2018-07-16T07:41:03.373Z,34.90
2018-07-16T07:43:31.469Z,34.43
2018-07-16T07:45:59.589Z,36.61
2018-07-16T07:48:27.673Z,36.98
2018-07-16T07:50:55.785Z,33.48
2018-07-16T07:53:23.892Z,33.89
2018-07-16T07:55:52.055Z,34.34
2018-07-16T07:58:20.188Z,35.31
2018-07-16T08:00:48.287Z,37.09
2018-07-16T08:03:16.577Z,36.97
2018-07-16T08:05:49.886Z,36.66
2018-07-16T08:08:18.053Z,34.68
2018-07-16T08:10:46.236Z,35.68
2018-07-16T08:13:14.379Z,36.49
2018-07-16T08:15:42.567Z,33.74
2018-07-16T08:18:10.784Z,37.26
2018-07-16T08:20:38.886Z,35.59
2018-07-16T08:23:07.151Z,35.11
2018-07-16T08:25:35.268Z,35.39
2018-07-16T08:28:03.415Z,33.38
2018-07-16T08:30:31.551Z,34.28
2018-07-16T08:32:59.842Z,33.42
2018-07-16T08:35:28.017Z,33.79
2018-07-16T08:37:56.107Z,36.04
2018-07-16T08:40:24.284Z,38.80
2018-07-16T08:42:52.400Z,38.44
2018-07-16T08:45:20.535Z,37.80
2018-07-16T08:47:48.780Z,38.59
2018-07-16T08:50:16.878Z,39.98
2018-07-16T08:52:45.007Z,38.46
2018-07-16T08:55:13.116Z,35.70
2018-07-16T08:57:41.322Z,34.35
2018-07-16T09:00:09.478Z,38.45
2018-07-16T09:02:37.620Z,40.64
2018-07-16T09:05:05.871Z,40.70
2018-07-16T09:07:34.288Z,40.26
2018-07-16T09:10:02.421Z,41.47
2018-07-16T09:12:30.526Z,40.24
2018-07-16T09:14:58.634Z,39.86
2018-07-16T09:17:26.760Z,37.96
2018-07-16T09:19:54.953Z,36.42
2018-07-16T09:22:23.033Z,36.51
2018-07-16T09:24:51.150Z,34.59
2018-07-16T09:27:19.294Z,38.67
2018-07-16T09:29:47.396Z,39.72
2018-07-16T09:32:15.523Z,39.47
2018-07-16T09:34:43.613Z,39.36
2018-07-16T09:37:11.688Z,39.96
2018-07-16T09:39:39.981Z,40.24
2018-07-16T09:42:08.104Z,40.52
2018-07-16T09:44:36.222Z,40.06
2018-07-16T09:47:04.334Z,39.67
2018-07-16T09:49:32.437Z,40.89
2018-07-16T09:52:01.465Z,41.84
2018-07-16T09:54:29.552Z,39.26
2018-07-16T09:56:57.685Z,40.21
2018-07-16T09:59:25.822Z,38.83
2018-07-16T10:01:59.277Z,39.06
2018-07-16T10:04:27.373Z,38.89
2018-07-16T10:06:55.485Z,36.49
2018-07-16T10:09:23.603Z,38.57
2018-07-16T10:11:51.746Z,37.96
2018-07-16T10:14:19.933Z,38.61
2018-07-16T10:16:47.967Z,39.03
2018-07-16T10:19:16.056Z,42.52
2018-07-16T10:21:44.178Z,38.50
2018-07-16T10:24:12.282Z,37.36
2018-07-16T10:26:40.415Z,36.56
2018-07-16T10:29:08.557Z,36.57
2018-07-16T10:31:36.719Z,35.99
2018-07-16T10:34:04.806Z,36.02
2018-07-16T10:36:32.906Z,36.48
2018-07-16T10:39:01.011Z,36.17
2018-07-16T10:41:29.177Z,39.12
2018-07-16T10:43:57.284Z,37.77
2018-07-16T10:46:25.407Z,38.35
2018-07-16T10:48:53.575Z,37.95
2018-07-16T10:51:21.686Z,38.00
2018-07-16T10:53:49.790Z,38.89
2018-07-16T10:56:17.904Z,37.26
2018-07-16T10:58:46.056Z,35.75
2018-07-16T11:01:14.217Z,36.93
2018-07-16T11:03:42.321Z,34.61
2018-07-16T11:06:15.721Z,34.39
2018-07-16T11:08:43.863Z,35.31
2018-07-16T11:11:11.994Z,35.77
2018-07-16T11:13:40.089Z,36.84
2018-07-16T11:16:08.240Z,36.30
2018-07-16T11:18:36.337Z,37.05
2018-07-16T11:21:04.424Z,36.18
2018-07-16T11:23:32.594Z,37.47
2018-07-16T11:26:00.693Z,34.24
2018-07-16T11:28:28.862Z,35.58
2018-07-16T11:30:56.943Z,34.87
2018-07-16T11:33:25.066Z,33.95
2018-07-16T11:35:53.258Z,33.68
2018-07-16T11:38:21.325Z,33.71
2018-07-16T11:40:49.543Z,34.58
2018-07-16T11:43:17.707Z,33.94
2018-07-16T11:45:45.830Z,34.29
2018-07-16T11:48:13.916Z,34.11
2018-07-16T11:50:42.038Z,33.09
2018-07-16T11:53:10.141Z,32.26
2018-07-16T11:55:38.268Z,32.37
2018-07-16T11:58:06.419Z,32.08
2018-07-16T12:00:34.565Z,32.65
2018-07-16T12:03:02.693Z,33.10
2018-07-16T12:05:30.809Z,30.71
2018-07-16T12:07:58.994Z,32.46
2018-07-16T12:10:27.105Z,33.93
2018-07-16T12:12:55.232Z,32.71
2018-07-16T12:15:23.336Z,31.21
2018-07-16T12:17:51.557Z,31.72
2018-07-16T12:20:19.686Z,30.68
2018-07-16T12:22:47.842Z,31.66
2018-07-16T12:25:16.191Z,31.78
2018-07-16T12:27:44.265Z,31.94
2018-07-16T12:30:12.390Z,32.59
2018-07-16T12:32:40.526Z,30.07
2018-07-16T12:35:08.614Z,30.78
2018-07-16T12:37:36.717Z,31.28
2018-07-16T12:40:04.827Z,30.78
2018-07-16T12:42:32.950Z,31.17
2018-07-16T12:45:01.077Z,31.71
2018-07-16T12:47:29.246Z,32.75
2018-07-16T12:49:57.364Z,34.05
2018-07-16T12:52:25.443Z,34.14
2018-07-16T12:54:53.571Z,33.44
2018-07-16T12:57:21.703Z,32.63
2018-07-16T12:59:50.061Z,31.36
2018-07-16T13:02:18.183Z,32.27
2018-07-16T13:04:46.285Z,32.53
2018-07-16T13:07:14.409Z,33.20
2018-07-16T13:09:42.549Z,33.73
2018-07-16T13:12:10.782Z,32.13
2018-07-16T13:14:38.926Z,31.38
2018-07-16T13:17:07.120Z,30.79
2018-07-16T13:19:35.208Z,31.46
2018-07-16T13:22:03.255Z,32.70
2018-07-16T13:24:31.360Z,32.36
2018-07-16T13:26:59.504Z,34.22
2018-07-16T13:29:27.607Z,33.24
2018-07-16T13:31:55.705Z,32.01
2018-07-16T13:34:23.771Z,31.20
2018-07-16T13:36:51.877Z,31.50
2018-07-16T13:39:19.993Z,33.17
2018-07-16T13:41:48.442Z,32.67
2018-07-16T13:44:16.628Z,33.55
2018-07-16T13:46:50.155Z,33.64
2018-07-16T13:49:18.215Z,34.12
2018-07-16T13:51:46.277Z,34.62
2018-07-16T13:54:14.405Z,32.99
2018-07-16T13:56:42.528Z,33.15
2018-07-16T13:59:10.659Z,34.23
2018-07-16T14:01:38.850Z,33.75
2018-07-16T14:04:06.931Z,33.23
2018-07-16T14:06:35.085Z,32.69
2018-07-16T14:09:03.903Z,33.95
2018-07-16T14:11:32.047Z,34.55
2018-07-16T14:14:00.163Z,35.17
2018-07-16T14:16:28.280Z,35.87
2018-07-16T14:18:56.399Z,34.70
2018-07-16T14:21:24.531Z,34.95
2018-07-16T14:23:52.635Z,33.48
2018-07-16T14:26:20.753Z,35.10
2018-07-16T14:28:48.887Z,34.55
2018-07-16T14:31:17.035Z,34.69
2018-07-16T14:33:45.145Z,34.75
2018-07-16T14:36:13.303Z,34.57
2018-07-16T14:38:41.482Z,34.29
2018-07-16T14:41:09.636Z,33.41
2018-07-16T14:43:37.731Z,33.26
2018-07-16T14:46:05.888Z,32.51
2018-07-16T14:48:34.029Z,34.76
2018-07-16T14:51:02.146Z,35.40
2018-07-16T14:53:30.255Z,35.07
2018-07-16T14:55:58.389Z,35.85
2018-07-16T14:58:26.472Z,36.61
2018-07-16T15:00:54.614Z,35.87
2018-07-16T15:03:22.913Z,35.06
2018-07-16T15:05:51.112Z,34.31
2018-07-16T15:08:19.264Z,34.18
2018-07-16T15:10:47.375Z,35.69
2018-07-16T15:13:15.482Z,36.54
2018-07-16T15:15:43.695Z,35.55
2018-07-16T15:18:11.844Z,35.61
2018-07-16T15:20:40.113Z,34.70
2018-07-16T15:23:08.084Z,34.82
2018-07-16T15:25:36.246Z,34.94
2018-07-16T15:28:04.321Z,35.67
2018-07-16T15:30:32.420Z,36.11
2018-07-16T15:33:00.598Z,36.00
2018-07-16T15:35:29.702Z,35.57
2018-07-16T15:37:57.845Z,36.88
2018-07-16T15:40:25.971Z,37.00
2018-07-16T15:42:54.108Z,36.33
2018-07-16T15:45:22.196Z,37.14
2018-07-16T15:47:50.299Z,35.63
2018-07-16T15:50:18.546Z,35.87
2018-07-16T15:52:46.646Z,37.08
2018-07-16T15:55:14.719Z,37.95
2018-07-16T15:57:42.910Z,38.27
2018-07-16T16:00:11.192Z,39.09
2018-07-16T16:02:39.377Z,39.02
2018-07-16T16:05:07.420Z,39.58
2018-07-16T16:07:35.575Z,37.61
2018-07-16T16:10:04.484Z,37.97
2018-07-16T16:12:32.563Z,38.87
2018-07-16T16:15:00.681Z,38.74
2018-07-16T16:17:28.831Z,38.86
2018-07-16T16:19:57.048Z,38.69
2018-07-16T16:22:25.102Z,37.79
2018-07-16T16:24:53.248Z,37.64
2018-07-16T16:27:21.338Z,39.13
2018-07-16T16:29:49.494Z,38.20
2018-07-16T16:32:17.625Z,37.55
2018-07-16T16:34:45.830Z,38.08
2018-07-16T16:37:13.977Z,39.38
2018-07-16T16:39:42.362Z,39.01
2018-07-16T16:42:10.648Z,38.59
2018-07-16T16:44:38.721Z,37.53
2018-07-16T16:47:06.861Z,38.93
2018-07-16T16:49:34.976Z,38.10
2018-07-16T16:52:03.138Z,40.12
2018-07-16T16:54:31.364Z,40.51
2018-07-16T16:56:59.465Z,39.63
2018-07-16T16:59:27.640Z,38.58
2018-07-16T17:01:55.808Z,38.51
2018-07-16T17:04:23.899Z,38.33
2018-07-16T17:06:52.081Z,38.68
2018-07-16T17:09:20.170Z,39.72
2018-07-16T17:11:48.344Z,37.88
2018-07-16T17:14:16.427Z,37.99
2018-07-16T17:16:44.530Z,37.37
2018-07-16T17:19:12.747Z,37.79
2018-07-16T17:21:40.864Z,38.52
2018-07-16T17:24:08.974Z,39.42
2018-07-16T17:26:37.121Z,40.16
2018-07-16T17:29:05.688Z,39.65
2018-07-16T17:31:33.870Z,40.41
2018-07-16T17:34:02.069Z,40.28
2018-07-16T17:36:30.235Z,41.53
2018-07-16T17:38:58.335Z,42.75
2018-07-16T17:41:26.508Z,42.32
2018-07-16T17:43:54.637Z,41.31
2018-07-16T17:46:22.791Z,42.21
2018-07-16T17:48:50.914Z,42.17
2018-07-16T17:51:19.073Z,43.18
2018-07-16T17:53:47.256Z,42.20
2018-07-16T17:56:15.419Z,43.87
2018-07-16T17:58:43.607Z,43.55
2018-07-16T18:01:11.754Z,44.17
2018-07-16T18:03:39.873Z,45.36
2018-07-16T18:06:08.066Z,45.52
2018-07-16T18:08:36.184Z,45.24
2018-07-16T18:11:04.352Z,45.17
2018-07-16T18:13:32.488Z,44.71
2018-07-16T18:16:00.602Z,44.96
2018-07-16T18:18:28.754Z,45.46
2018-07-16T18:20:56.946Z,46.39
2018-07-16T18:23:25.059Z,46.73
2018-07-16T18:25:53.191Z,46.82
2018-07-16T18:28:21.341Z,47.52
2018-07-16T18:30:49.498Z,48.54
2018-07-16T18:33:17.677Z,48.32
2018-07-16T18:35:45.792Z,48.61
2018-07-16T18:38:13.984Z,48.88
2018-07-16T18:40:42.196Z,49.80
2018-07-16T18:43:10.361Z,49.57
2018-07-16T18:45:38.476Z,49.39
2018-07-16T18:48:06.601Z,49.97
2018-07-16T18:50:34.722Z,49.60
2018-07-16T18:53:02.907Z,48.70
2018-07-16T18:55:31.133Z,49.41
2018-07-16T18:57:59.244Z,49.57
2018-07-16T19:00:27.367Z,48.88
2018-07-16T19:02:55.486Z,49.62
2018-07-16T19:05:23.671Z,51.00
2018-07-16T19:07:51.815Z,50.26
2018-07-16T19:10:19.892Z,50.13
2018-07-16T19:12:48.004Z,49.58
2018-07-16T19:15:23.836Z,49.96
2018-07-16T19:17:52.547Z,50.37
2018-07-16T19:20:20.671Z,50.60
2018-07-16T19:22:48.819Z,51.01
2018-07-16T19:25:17.223Z,51.59
2018-07-16T19:27:45.322Z,52.35
2018-07-16T19:30:13.497Z,52.97
2018-07-16T19:32:41.601Z,52.15
2018-07-16T19:35:09.714Z,53.04
2018-07-16T19:37:37.781Z,53.44
2018-07-16T19:40:07.005Z,53.51
2018-07-16T19:42:35.167Z,54.56
2018-07-16T19:45:03.357Z,55.17
2018-07-16T19:47:31.440Z,55.46
2018-07-16T19:49:59.579Z,55.10
2018-07-16T19:52:27.713Z,55.53
2018-07-16T19:54:55.844Z,56.16
2018-07-16T19:57:24.014Z,55.38
2018-07-16T19:59:52.131Z,56.39
2018-07-16T20:02:20.224Z,55.78
2018-07-16T20:04:48.363Z,55.45
2018-07-16T20:07:16.483Z,55.74
2018-07-16T20:09:44.933Z,57.30
2018-07-16T20:12:33.321Z,57.78
2018-07-16T20:15:02.321Z,59.86
2018-07-16T20:17:31.169Z,60.67
2018-07-16T20:19:59.656Z,60.92
2018-07-16T20:22:28.240Z,60.45
2018-07-16T20:24:56.354Z,60.54
2018-07-16T20:27:24.454Z,61.28
2018-07-16T20:29:52.760Z,60.80
2018-07-16T20:32:20.877Z,61.87
2018-07-16T20:34:48.945Z,62.42
2018-07-16T20:37:17.060Z,60.31
2018-07-16T20:39:45.713Z,60.53
2018-07-16T20:42:13.821Z,63.08
2018-07-16T20:44:42.050Z,65.09
2018-07-16T20:47:10.169Z,64.01
2018-07-16T20:49:38.396Z,64.15
2018-07-16T20:52:06.638Z,63.27
2018-07-16T20:54:34.763Z,65.29
2018-07-16T20:57:02.861Z,66.05
2018-07-16T20:59:30.956Z,66.09
2018-07-16T21:01:59.071Z,65.87
2018-07-16T21:04:27.148Z,65.60
2018-07-16T21:06:55.228Z,65.93
2018-07-16T21:09:23.326Z,65.53
2018-07-16T21:11:51.449Z,65.71
2018-07-16T21:14:19.562Z,66.87
2018-07-16T21:16:47.686Z,66.54
2018-07-16T21:19:15.806Z,66.74
2018-07-16T21:21:43.945Z,66.83
2018-07-16T21:24:12.007Z,67.63
2018-07-16T21:26:40.228Z,67.77
2018-07-16T21:29:08.390Z,67.44
2018-07-16T21:31:36.518Z,67.85
2018-07-16T21:34:04.613Z,68.41
2018-07-16T21:36:32.699Z,68.76
2018-07-16T21:39:00.794Z,68.87
2018-07-16T21:41:28.861Z,68.83
2018-07-16T21:43:57.024Z,69.21
2018-07-16T21:46:25.109Z,69.51
2018-07-16T21:48:53.223Z,70.59
2018-07-16T21:51:21.331Z,71.56
2018-07-16T21:53:49.481Z,71.85
2018-07-16T21:56:17.583Z,72.48
2018-07-16T21:58:45.694Z,73.08
2018-07-16T22:01:13.841Z,72.73
2018-07-16T22:03:41.951Z,73.62
2018-07-16T22:06:10.063Z,73.64
2018-07-16T22:08:38.172Z,73.35
2018-07-16T22:11:06.302Z,73.36
2018-07-16T22:13:34.430Z,73.67
2018-07-16T22:16:02.562Z,74.00
2018-07-16T22:18:30.685Z,74.24
2018-07-16T22:20:58.893Z,74.12
2018-07-16T22:23:27.028Z,73.71
2018-07-16T22:25:55.135Z,74.07
2018-07-16T22:28:23.276Z,73.51
2018-07-16T22:30:51.406Z,73.67
2018-07-16T22:33:19.510Z,74.35
2018-07-16T22:35:47.606Z,74.59
2018-07-16T22:38:15.667Z,74.69
2018-07-16T22:40:43.823Z,75.18
2018-07-16T22:43:11.966Z,74.51
2018-07-16T22:45:40.037Z,74.96
2018-07-16T22:48:08.120Z,76.41
2018-07-16T22:50:36.269Z,76.65
2018-07-16T22:53:04.408Z,76.37
2018-07-16T22:55:32.537Z,76.60
2018-07-16T22:58:00.656Z,77.88
2018-07-16T23:00:28.756Z,77.59
2018-07-16T23:02:56.893Z,77.69
2018-07-16T23:05:24.971Z,77.03
2018-07-16T23:07:53.058Z,76.99
2018-07-16T23:10:21.149Z,76.98
2018-07-16T23:12:49.296Z,77.10
2018-07-16T23:15:17.412Z,76.88
2018-07-16T23:17:45.549Z,77.49
2018-07-16T23:20:13.724Z,77.75
2018-07-16T23:22:50.305Z,77.67
2018-07-16T23:25:18.488Z,78.85
2018-07-16T23:27:47.260Z,78.96
2018-07-16T23:30:16.262Z,79.72
2018-07-16T23:32:44.941Z,79.55
2018-07-16T23:35:13.154Z,80.27
2018-07-16T23:37:41.306Z,81.03
2018-07-16T23:40:09.535Z,80.79
2018-07-16T23:42:37.628Z,80.95
2018-07-16T23:45:05.749Z,80.71
2018-07-16T23:47:33.888Z,80.81
2018-07-16T23:50:02.116Z,80.26
2018-07-16T23:52:30.976Z,79.62
2018-07-16T23:54:59.240Z,79.58
2018-07-16T23:57:27.384Z,79.74
2018-07-16T23:59:55.525Z,80.18
